Time;durP1;ratioP1;P1;durP2;ratioP2;P2;SDS_P1;SDS_P2;PMS_P1;PMS_P2;Temp;Humidity;BMP_temperature;BMP_pressure;BME280_temperature;BME280_humidity;BME280_pressure;Samples;Min_cycle;Max_cycle;Signal;HPM_P1;HPM_P2
2022/06/07 00:01:10;;;;;;;20.63;9.90;;;;;;;17.18;100.00;94704.28;5108269;28;20730;-84
2022/06/07 00:03:46;;;;;;;17.40;9.43;;;;;;;17.19;100.00;94703.25;5098234;28;20196;-84
2022/06/07 00:06:17;;;;;;;20.10;9.57;;;;;;;17.21;100.00;94707.19;5102348;28;20206;-84
2022/06/07 00:08:45;;;;;;;16.80;9.40;;;;;;;17.25;100.00;94713.53;5100408;28;20224;-84
2022/06/07 00:11:18;;;;;;;14.80;9.93;;;;;;;17.18;100.00;94709.53;5095744;28;20208;-84
2022/06/07 00:13:51;;;;;;;15.63;9.33;;;;;;;17.26;100.00;94725.59;5100543;28;20678;-84
2022/06/07 00:16:22;;;;;;;16.80;8.63;;;;;;;17.26;100.00;94712.44;5107218;28;20211;-85
2022/06/07 00:18:53;;;;;;;13.67;9.03;;;;;;;17.27;100.00;94711.41;5108706;28;20728;-84
2022/06/07 00:21:29;;;;;;;14.17;8.77;;;;;;;17.30;100.00;94712.72;5101800;28;20203;-85
2022/06/07 00:24:07;;;;;;;22.57;9.50;;;;;;;17.37;100.00;94718.56;5105048;28;20211;-88
2022/06/07 00:26:42;;;;;;;16.30;8.90;;;;;;;17.35;100.00;94718.00;5098145;28;20279;-88
2022/06/07 00:29:17;;;;;;;15.87;8.33;;;;;;;17.33;100.00;94709.59;5092838;28;20318;-88
2022/06/07 00:31:48;;;;;;;12.60;7.97;;;;;;;17.39;100.00;94714.59;5102865;28;20207;-86
2022/06/07 00:34:19;;;;;;;13.23;7.97;;;;;;;17.36;100.00;94714.34;5099697;28;20197;-85
2022/06/07 00:36:51;;;;;;;11.43;7.70;;;;;;;17.32;100.00;94698.28;5094342;28;20213;-87
2022/06/07 00:39:28;;;;;;;11.70;7.90;;;;;;;17.37;100.00;94700.16;5104739;28;20196;-87
2022/06/07 00:42:00;;;;;;;17.13;8.10;;;;;;;17.38;100.00;94723.53;5102307;28;20238;-86
2022/06/07 00:44:44;;;;;;;12.67;7.73;;;;;;;17.35;100.00;94723.25;5094491;28;20291;-83
2022/06/07 00:47:18;;;;;;;17.13;8.03;;;;;;;17.37;100.00;94721.19;5103570;28;20317;-84
2022/06/07 00:49:53;;;;;;;12.23;7.83;;;;;;;17.39;100.00;94711.97;5109053;28;20657;-84
2022/06/07 00:52:27;;;;;;;14.20;8.90;;;;;;;17.33;100.00;94718.25;5107785;28;20199;-84
2022/06/07 00:55:00;;;;;;;11.47;8.33;;;;;;;17.27;100.00;94714.03;5101169;28;20210;-84
2022/06/07 00:57:32;;;;;;;14.27;8.00;;;;;;;17.28;100.00;94722.72;5106731;28;20612;-85
2022/06/07 01:00:08;;;;;;;14.27;8.27;;;;;;;17.34;100.00;94721.69;5107522;28;20204;-84
2022/06/07 01:02:42;;;;;;;11.67;8.43;;;;;;;17.37;100.00;94716.69;5102044;28;20202;-85
2022/06/07 01:05:12;;;;;;;14.90;7.97;;;;;;;17.36;100.00;94716.97;5111040;28;20208;-85
2022/06/07 01:10:48;;;;;;;9.63;7.30;;;;;;;17.32;100.00;94714.06;5070390;28;20220;-83
2022/06/07 01:13:22;;;;;;;14.27;7.47;;;;;;;17.26;100.00;94716.91;5063461;28;20242;-84
2022/06/07 01:16:03;;;;;;;12.83;7.93;;;;;;;17.23;100.00;94715.59;5061727;28;20227;-83
2022/06/07 01:18:35;;;;;;;9.10;7.37;;;;;;;17.26;100.00;94720.34;5070304;28;20213;-83
2022/06/07 01:21:24;;;;;;;12.53;7.50;;;;;;;17.20;100.00;94707.47;5072367;28;20204;-83
2022/06/07 01:24:00;;;;;;;10.03;7.13;;;;;;;17.22;100.00;94714.03;5061983;28;20252;-84
2022/06/07 01:26:31;;;;;;;15.63;7.33;;;;;;;17.18;100.00;94709.53;5064271;28;20283;-84
2022/06/07 01:29:04;;;;;;;15.23;7.93;;;;;;;17.24;100.00;94719.00;5061060;28;20202;-84
2022/06/07 01:31:36;;;;;;;10.33;7.70;;;;;;;17.25;100.00;94718.78;5060502;28;20229;-85
2022/06/07 01:34:10;;;;;;;15.43;7.67;;;;;;;17.29;100.00;94724.28;5070087;28;20922;-83
2022/06/07 01:36:44;;;;;;;15.20;7.57;;;;;;;17.21;100.00;94722.94;5068925;28;20244;-83
2022/06/07 01:42:04;;;;;;;13.53;7.90;;;;;;;17.18;100.00;94726.09;5059158;28;20591;-84
2022/06/07 01:44:47;;;;;;;13.20;7.83;;;;;;;17.17;100.00;94719.25;5069221;28;20202;-84
2022/06/07 01:47:20;;;;;;;14.43;7.93;;;;;;;17.22;100.00;94716.66;5062782;28;20354;-84
2022/06/07 01:49:51;;;;;;;11.10;7.70;;;;;;;17.22;100.00;94713.22;5067963;28;20226;-83
2022/06/07 01:52:30;;;;;;;11.07;7.93;;;;;;;17.20;100.00;94702.97;5064776;28;20209;-83
2022/06/07 01:55:05;;;;;;;11.70;7.97;;;;;;;17.20;100.00;94710.09;5067506;28;20205;-85
2022/06/07 01:57:35;;;;;;;12.90;8.13;;;;;;;17.15;100.00;94704.78;5070312;28;20263;-85
2022/06/07 02:00:07;;;;;;;12.83;7.63;;;;;;;17.14;100.00;94706.66;5067540;28;20284;-85
2022/06/07 02:02:40;;;;;;;11.43;7.90;;;;;;;17.16;100.00;94707.19;5062526;28;20284;-85
2022/06/07 02:05:13;;;;;;;12.57;7.67;;;;;;;17.10;100.00;94702.16;5062329;28;20231;-85
2022/06/07 02:07:48;;;;;;;12.57;7.53;;;;;;;17.10;100.00;94689.81;5063662;28;20701;-85
2022/06/07 02:10:21;;;;;;;14.37;7.90;;;;;;;17.13;100.00;94699.00;5107018;28;20240;-85
2022/06/07 02:12:55;;;;;;;11.93;7.67;;;;;;;17.03;100.00;94697.13;5106249;28;20579;-81
2022/06/07 02:15:26;;;;;;;10.10;8.17;;;;;;;17.13;100.00;94704.25;5101233;28;20585;-86
2022/06/07 02:18:02;;;;;;;17.83;8.27;;;;;;;17.05;100.00;94697.69;5110957;28;20488;-88
2022/06/07 02:20:34;;;;;;;14.47;8.03;;;;;;;17.10;100.00;94699.53;5101440;28;20203;-82
2022/06/07 02:23:11;;;;;;;14.63;8.67;;;;;;;17.08;100.00;94706.88;5102968;28;20283;-84
2022/06/07 02:25:47;;;;;;;10.80;8.13;;;;;;;17.09;100.00;94703.19;5100374;28;20671;-84
2022/06/07 02:28:22;;;;;;;15.10;8.20;;;;;;;17.09;100.00;94711.84;5108004;28;20210;-84
2022/06/07 02:30:54;;;;;;;18.47;9.10;;;;;;;17.07;100.00;94700.84;5101710;28;20273;-83
2022/06/07 02:33:27;;;;;;;14.30;8.70;;;;;;;17.10;100.00;94707.41;5108919;28;20207;-87
2022/06/07 02:36:01;;;;;;;17.63;9.00;;;;;;;17.06;100.00;94709.75;5110105;28;20223;-86
2022/06/07 02:38:34;;;;;;;14.00;8.43;;;;;;;17.08;100.00;94712.94;5105975;28;20192;-85
2022/06/07 02:41:08;;;;;;;13.03;8.57;;;;;;;17.06;100.00;94709.75;5106399;28;20201;-84
2022/06/07 02:43:40;;;;;;;14.57;7.87;;;;;;;17.04;100.00;94706.59;5098078;28;20700;-84
2022/06/07 02:46:11;;;;;;;15.83;7.47;;;;;;;17.03;100.00;94705.78;5094248;28;20214;-85
2022/06/07 02:48:44;;;;;;;11.80;7.43;;;;;;;17.00;100.00;94697.63;5109603;28;20203;-86
2022/06/07 02:51:19;;;;;;;10.87;7.77;;;;;;;17.12;100.00;94710.56;5104751;28;20227;-86
2022/06/07 02:53:56;;;;;;;13.13;8.37;;;;;;;17.10;100.00;94710.03;5102439;28;20252;-84
2022/06/07 02:56:30;;;;;;;13.10;8.23;;;;;;;17.10;100.00;94717.91;5096718;28;20204;-85
2022/06/07 02:59:03;;;;;;;17.13;8.57;;;;;;;17.03;100.00;94713.69;5092823;28;20246;-85
2022/06/07 03:01:34;;;;;;;16.23;8.10;;;;;;;17.09;100.00;94735.50;5104026;28;20195;-82
2022/06/07 03:04:05;;;;;;;10.57;7.33;;;;;;;17.10;100.00;94733.66;5099067;28;20261;-85
2022/06/07 03:06:36;;;;;;;12.33;7.70;;;;;;;17.15;100.00;94741.56;5107890;28;20204;-76
2022/06/07 03:09:11;;;;;;;13.23;7.20;;;;;;;17.12;100.00;94736.81;5106284;28;20680;-76
2022/06/07 03:11:44;;;;;;;10.03;7.53;;;;;;;17.09;100.00;94746.00;5106565;28;20230;-76
2022/06/07 03:14:16;;;;;;;12.27;7.37;;;;;;;17.03;100.00;94739.94;5098861;28;20659;-76
2022/06/07 03:16:50;;;;;;;13.27;7.90;;;;;;;16.98;100.00;94750.41;5106873;28;20200;-76
2022/06/07 03:19:23;;;;;;;12.03;7.43;;;;;;;16.94;100.00;94746.72;5106853;28;20207;-79
2022/06/07 03:21:55;;;;;;;17.23;8.67;;;;;;;16.99;100.00;94757.25;5106066;28;20746;-77
2022/06/07 03:24:31;;;;;;;12.30;8.83;;;;;;;16.99;100.00;94749.38;5104493;28;20726;-77
2022/06/07 03:27:03;;;;;;;16.40;8.60;;;;;;;17.05;100.00;94750.19;5106973;28;20290;-77
2022/06/07 03:29:34;;;;;;;16.20;8.87;;;;;;;17.06;100.00;94753.59;5106640;28;20207;-76
2022/06/07 03:32:10;;;;;;;15.33;9.50;;;;;;;17.08;100.00;94743.66;5104195;28;20215;-76
2022/06/07 03:34:44;;;;;;;14.03;9.47;;;;;;;17.13;100.00;94751.53;5103741;28;20207;-76
2022/06/07 03:37:17;;;;;;;18.50;9.13;;;;;;;17.17;100.00;94748.13;5106407;28;20200;-76
2022/06/07 03:39:50;;;;;;;18.27;10.37;;;;;;;17.16;100.00;94743.16;5099128;28;20195;-77
2022/06/07 03:42:22;;;;;;;16.90;9.97;;;;;;;17.19;100.00;94753.94;5103148;28;20196;-77
2022/06/07 03:44:52;;;;;;;16.73;9.27;;;;;;;17.19;100.00;94751.31;5102541;28;20509;-76
2022/06/07 03:47:23;;;;;;;15.27;9.93;;;;;;;17.21;100.00;94749.22;5101403;28;20212;-77
2022/06/07 03:49:56;;;;;;;17.30;10.50;;;;;;;17.22;100.00;94756.06;5100367;28;20228;-77
2022/06/07 03:52:27;;;;;;;18.40;9.40;;;;;;;17.18;100.00;94754.97;5107218;28;20210;-77
2022/06/07 03:55:00;;;;;;;17.00;10.20;;;;;;;17.23;100.00;94752.38;5106157;28;20693;-75
2022/06/07 03:57:28;;;;;;;20.03;10.77;;;;;;;17.30;100.00;94755.56;5107192;28;20204;-75
2022/06/07 03:59:59;;;;;;;18.60;10.50;;;;;;;17.34;100.00;94761.09;5107114;28;20264;-74
2022/06/07 04:02:28;;;;;;;19.97;11.57;;;;;;;17.34;100.00;94759.28;5109498;28;20218;-75
2022/06/07 04:04:58;;;;;;;17.53;11.07;;;;;;;17.28;100.00;94759.50;5106520;28;20200;-75
2022/06/07 04:10:15;;;;;;;22.20;11.70;;;;;;;17.22;100.00;94750.00;5105737;28;20227;-75
2022/06/07 04:12:45;;;;;;;17.80;12.07;;;;;;;16.77;100.00;94753.97;5106712;28;20303;-75
2022/06/07 04:15:14;;;;;;;24.37;12.83;;;;;;;16.46;100.00;94758.19;5106584;28;20220;-75
2022/06/07 04:17:44;;;;;;;21.27;12.67;;;;;;;16.31;100.00;94765.16;5105560;28;20663;-75
2022/06/07 04:20:15;;;;;;;23.37;13.80;;;;;;;16.15;100.00;94764.25;5098035;28;20270;-75
2022/06/07 04:22:43;;;;;;;20.80;13.33;;;;;;;16.20;100.00;94772.16;5100821;28;20208;-75
2022/06/07 04:25:17;;;;;;;19.63;13.00;;;;;;;16.39;100.00;94770.72;5108487;28;20602;-75
2022/06/07 04:27:49;;;;;;;22.80;13.30;;;;;;;16.59;100.00;94770.13;5108114;28;20199;-74
2022/06/07 04:30:22;;;;;;;23.43;13.10;;;;;;;16.63;100.00;94779.06;5110295;28;20218;-77
2022/06/07 04:32:53;;;;;;;21.20;12.17;;;;;;;16.57;100.00;94764.34;5110239;28;20204;-74
2022/06/07 04:35:24;;;;;;;21.00;12.07;;;;;;;16.75;100.00;94760.53;5109463;28;20724;-75
2022/06/07 04:37:58;;;;;;;19.77;12.10;;;;;;;16.84;100.00;94764.25;5104685;28;20205;-74
2022/06/07 04:40:34;;;;;;;30.17;12.30;;;;;;;16.86;100.00;94767.41;5107142;28;20199;-74
2022/06/07 04:43:06;;;;;;;17.27;11.40;;;;;;;16.91;100.00;94762.22;5109189;28;20614;-76
2022/06/07 04:45:39;;;;;;;21.50;11.83;;;;;;;17.01;100.00;94767.50;5107480;28;20204;-76
2022/06/07 04:48:15;;;;;;;19.70;12.07;;;;;;;16.99;100.00;94773.03;5103963;28;20204;-77
2022/06/07 04:50:47;;;;;;;21.10;12.17;;;;;;;17.17;100.00;94765.75;5111718;28;20219;-79
2022/06/07 04:53:18;;;;;;;16.17;11.07;;;;;;;17.26;100.00;94772.06;5110508;28;20204;-77
2022/06/07 04:55:50;;;;;;;19.10;12.30;;;;;;;17.14;100.00;94768.91;5107379;28;20206;-78
2022/06/07 04:58:20;;;;;;;25.77;13.03;;;;;;;17.02;100.00;94772.50;5105034;28;20291;-78
2022/06/07 05:00:50;;;;;;;26.53;13.43;;;;;;;16.93;100.00;94773.25;5102622;28;20200;-76
2022/06/07 05:03:19;;;;;;;26.63;14.37;;;;;;;16.92;100.00;94779.53;5107666;28;20283;-77
2022/06/07 05:05:53;;;;;;;27.40;13.50;;;;;;;17.06;100.00;94779.84;5106967;28;20207;-78
2022/06/07 05:08:21;;;;;;;22.70;13.83;;;;;;;17.08;100.00;94783.03;5106724;28;20240;-77
2022/06/07 05:10:55;;;;;;;25.27;13.40;;;;;;;17.08;100.00;94788.28;5108732;28;20228;-77
2022/06/07 05:13:26;;;;;;;25.50;13.50;;;;;;;17.07;100.00;94790.13;5109860;28;20206;-78
2022/06/07 05:15:59;;;;;;;22.67;13.03;;;;;;;17.13;100.00;94786.47;5110255;28;20662;-78
2022/06/07 05:18:30;;;;;;;25.53;12.60;;;;;;;17.29;100.00;94784.69;5109196;28;20588;-76
2022/06/07 05:21:00;;;;;;;24.30;15.17;;;;;;;17.36;100.00;94783.44;5103336;28;20192;-76
2022/06/07 05:23:32;;;;;;;27.77;14.13;;;;;;;17.34;100.00;94785.53;5100294;28;20666;-77
2022/06/07 05:26:13;;;;;;;30.33;12.43;;;;;;;17.24;100.00;94796.00;5102449;28;20202;-77
2022/06/07 05:28:45;;;;;;;21.73;12.83;;;;;;;17.38;100.00;94791.06;5104428;28;20204;-77
2022/06/07 05:31:18;;;;;;;26.53;12.13;;;;;;;17.58;100.00;94791.16;5103178;28;20224;-76
2022/06/07 05:33:51;;;;;;;19.43;12.20;;;;;;;17.72;100.00;94799.38;5102664;28;20792;-76
2022/06/07 05:36:21;;;;;;;20.83;12.80;;;;;;;17.79;100.00;94798.06;5109638;28;20286;-76
2022/06/07 05:38:53;;;;;;;22.17;12.83;;;;;;;17.88;100.00;94793.91;5110540;28;20214;-77
2022/06/07 05:41:29;;;;;;;26.67;13.17;;;;;;;17.86;100.00;94795.22;5108689;28;20208;-77
2022/06/07 05:44:02;;;;;;;23.63;13.10;;;;;;;17.93;100.00;94803.63;5108118;28;20195;-76
2022/06/07 05:46:35;;;;;;;26.30;13.30;;;;;;;17.84;100.00;94792.81;5108672;28;20257;-76
2022/06/07 05:49:07;;;;;;;24.70;14.33;;;;;;;17.82;100.00;94792.31;5107814;28;20208;-78
2022/06/07 05:51:40;;;;;;;28.20;15.47;;;;;;;17.93;100.00;94790.47;5107919;28;20240;-76
2022/06/07 05:54:13;;;;;;;22.67;14.77;;;;;;;17.99;100.00;94794.69;5107986;28;20674;-76
2022/06/07 05:56:49;;;;;;;25.33;14.33;;;;;;;18.03;100.00;94793.94;5108025;28;20257;-77
2022/06/07 05:59:21;;;;;;;30.97;14.40;;;;;;;18.08;100.00;94793.94;5107118;28;20231;-77
2022/06/07 06:01:54;;;;;;;24.97;15.50;;;;;;;18.13;100.00;94791.31;5108844;28;20569;-76
2022/06/07 06:04:30;;;;;;;25.10;14.73;;;;;;;18.18;100.00;94789.75;5102230;28;20192;-76
2022/06/07 06:07:03;;;;;;;27.60;16.00;;;;;;;18.21;100.00;94790.00;5109789;28;20282;-77
2022/06/07 06:12:26;;;;;;;28.90;16.97;;;;;;;18.41;100.00;94787.38;5108195;28;20312;-76
2022/06/07 06:14:58;;;;;;;23.55;16.20;;;;;;;18.58;100.00;94790.59;5107629;28;20226;-75
2022/06/07 06:17:29;;;;;;;26.15;16.77;;;;;;;18.64;100.00;94792.16;5108423;28;20304;-85
2022/06/07 06:19:58;;;;;;;27.73;18.02;;;;;;;18.64;100.00;94786.88;5107034;28;20717;-77
2022/06/07 06:22:28;;;;;;;30.55;18.40;;;;;;;18.61;100.00;94789.28;5097334;28;20196;-83
2022/06/07 06:25:01;;;;;;;32.42;19.05;;;;;;;18.61;100.00;94773.47;5103698;28;20254;-83
2022/06/07 06:27:42;;;;;;;31.58;18.75;;;;;;;18.74;100.00;94778.19;5104724;28;20215;-83
2022/06/07 06:30:15;;;;;;;30.67;20.25;;;;;;;18.78;100.00;94781.09;5101880;28;20219;-83
2022/06/07 06:32:46;;;;;;;29.92;20.10;;;;;;;18.77;100.00;94780.28;5109867;28;20219;-81
2022/06/07 06:35:18;;;;;;;25.48;18.25;;;;;;;18.88;100.00;94784.50;5107896;28;20203;-83
2022/06/07 06:37:49;;;;;;;33.60;20.73;;;;;;;19.03;100.00;94775.78;5098714;28;20291;-83
2022/06/07 06:40:22;;;;;;;29.55;20.23;;;;;;;19.06;100.00;94775.25;5107052;28;20208;-81
2022/06/07 06:42:56;;;;;;;29.65;20.17;;;;;;;19.13;100.00;94773.88;5100325;28;20207;-81
2022/06/07 06:45:25;;;;;;;36.42;20.90;;;;;;;19.23;100.00;94781.78;5106533;28;20206;-80
2022/06/07 06:47:57;;;;;;;37.00;20.67;;;;;;;19.27;100.00;94779.41;5105083;28;20235;-83
2022/06/07 06:50:30;;;;;;;27.00;19.58;;;;;;;19.39;100.00;94776.50;5101717;28;20207;-85
2022/06/07 06:53:04;;;;;;;31.23;20.60;;;;;;;19.39;100.00;94771.22;5099916;28;20633;-86
2022/06/07 06:55:35;;;;;;;34.88;20.45;;;;;;;19.51;100.00;94771.72;5103772;28;20278;-85
2022/06/07 06:58:11;;;;;;;32.20;20.90;;;;;;;19.51;100.00;94767.22;5099167;28;20208;-84
2022/06/07 07:00:45;;;;;;;36.20;20.55;;;;;;;19.48;100.00;94762.47;5108223;28;20590;-84
2022/06/07 07:03:14;;;;;;;31.70;19.48;;;;;;;19.44;100.00;94758.81;5102716;28;20200;-85
2022/06/07 07:05:56;;;;;;;32.33;20.65;;;;;;;19.31;100.00;94766.50;5100079;28;20290;-86
2022/06/07 07:08:29;;;;;;;32.72;20.25;;;;;;;19.26;100.00;94759.38;5101036;28;20224;-83
2022/06/07 07:11:08;;;;;;;23.85;18.83;;;;;;;19.35;100.00;94762.25;5101220;28;20244;-82
2022/06/07 07:13:40;;;;;;;26.83;17.80;;;;;;;19.51;100.00;94756.66;5102471;28;20212;-83
2022/06/07 07:16:13;;;;;;;30.85;18.73;;;;;;;19.68;100.00;94756.34;5105298;28;20291;-83
2022/06/07 07:18:46;;;;;;;25.83;18.02;;;;;;;19.78;100.00;94762.34;5102590;28;20608;-85
2022/06/07 07:21:17;;;;;;;32.22;17.95;;;;;;;19.88;100.00;94764.16;5098462;28;20238;-84
2022/06/07 07:23:50;;;;;;;30.58;18.20;;;;;;;20.01;100.00;94760.88;5104979;28;20623;-85
2022/06/07 07:26:25;;;;;;;27.60;19.02;;;;;;;19.98;100.00;94758.78;5108493;28;20637;-85
2022/06/07 07:28:59;;;;;;;30.20;19.60;;;;;;;19.96;100.00;94760.13;5106200;28;20199;-79
2022/06/07 07:31:36;;;;;;;33.90;19.63;;;;;;;19.90;100.00;94751.47;5099349;28;20850;-84
2022/06/07 07:34:14;;;;;;;29.77;19.13;;;;;;;19.90;100.00;94748.81;5110549;28;20242;-81
2022/06/07 07:36:47;;;;;;;33.50;20.55;;;;;;;19.87;100.00;94746.72;5103636;28;20239;-82
2022/06/07 07:39:18;;;;;;;35.03;20.33;;;;;;;19.83;100.00;94748.31;5110030;28;20204;-83
2022/06/07 07:41:51;;;;;;;26.83;19.45;;;;;;;19.88;100.00;94745.69;5110521;28;20225;-81
2022/06/07 07:44:27;;;;;;;28.83;18.10;;;;;;;19.99;100.00;94743.75;5110665;28;20196;-83
2022/06/07 07:46:59;;;;;;;29.60;18.23;;;;;;;20.10;100.00;94732.06;5104895;28;20270;-82
2022/06/07 07:49:32;;;;;;;30.70;19.15;;;;;;;20.14;100.00;94735.75;5108348;28;20204;-82
2022/06/07 07:52:02;;;;;;;32.58;19.55;;;;;;;20.26;100.00;94733.53;5110843;28;20226;-82
2022/06/07 07:54:39;;;;;;;25.75;18.50;;;;;;;20.26;100.00;94731.69;5098189;28;20201;-82
2022/06/07 07:57:17;;;;;;;34.78;20.52;;;;;;;20.33;100.00;94731.38;5090220;28;20203;-82
2022/06/07 07:59:57;;;;;;;26.63;18.42;;;;;;;20.33;100.00;94715.56;5110013;28;20674;-82
2022/06/07 08:02:34;;;;;;;25.40;18.23;;;;;;;20.46;100.00;94716.78;5100594;28;20208;-82
2022/06/07 08:05:08;;;;;;;31.63;19.40;;;;;;;20.54;100.00;94711.69;5103020;28;20204;-81
2022/06/07 08:07:42;;;;;;;32.78;18.75;;;;;;;20.64;100.00;94710.78;5113182;28;20678;-82
2022/06/07 08:10:12;;;;;;;30.52;17.45;;;;;;;20.68;100.00;94709.97;5113717;28;20628;-84
2022/06/07 08:12:46;;;;;;;24.98;17.10;;;;;;;20.75;100.00;94707.00;5114228;28;20238;-85
2022/06/07 08:15:21;;;;;;;22.10;16.05;;;;;;;20.74;100.00;94695.63;5108934;28;20267;-83
2022/06/07 08:17:57;;;;;;;23.65;16.02;;;;;;;20.79;100.00;94697.41;5114170;28;20238;-83
2022/06/07 08:20:31;;;;;;;25.02;16.45;;;;;;;20.86;100.00;94689.97;5114709;28;20195;-82
2022/06/07 08:23:10;;;;;;;29.63;14.85;;;;;;;20.97;100.00;94688.00;5103725;28;20382;-83
2022/06/07 08:25:40;;;;;;;18.83;13.23;;;;;;;21.14;100.00;94694.44;5104938;28;20204;-82
2022/06/07 08:28:12;;;;;;;14.18;10.60;;;;;;;21.10;100.00;94676.75;5107488;28;20210;-82
2022/06/07 08:30:51;;;;;;;11.32;8.65;;;;;;;21.28;99.82;94687.38;5109460;28;20267;-82
2022/06/07 08:39:10;;;;;;;14.00;7.85;;;;;;;21.44;97.10;94678.16;5108759;28;20253;-84
2022/06/07 08:41:46;;;;;;;8.15;7.10;;;;;;;21.55;96.85;94675.41;5110617;28;20199;-80
2022/06/07 08:44:25;;;;;;;11.25;6.78;;;;;;;21.66;96.63;94679.47;5098095;28;20208;-83
2022/06/07 08:46:59;;;;;;;9.10;5.90;;;;;;;21.83;92.99;94682.41;5103070;28;20207;-84
2022/06/07 08:49:33;;;;;;;9.77;5.47;;;;;;;21.98;92.40;94684.88;5114220;28;20195;-84
2022/06/07 08:52:16;;;;;;;7.35;5.70;;;;;;;22.07;90.96;94664.59;5114094;28;20221;-83
2022/06/07 08:54:48;;;;;;;10.35;6.03;;;;;;;22.21;89.11;94669.94;5107513;28;20214;-86
2022/06/07 08:57:25;;;;;;;5.63;4.97;;;;;;;22.30;84.94;94670.84;5113547;28;20265;-83
2022/06/07 09:00:09;;;;;;;10.45;5.13;;;;;;;22.39;83.44;94672.56;5114122;28;20726;-82
2022/06/07 09:03:03;;;;;;;7.65;5.38;;;;;;;22.52;83.89;94663.03;5113743;28;20192;-83
2022/06/07 09:05:37;;;;;;;6.07;5.07;;;;;;;22.63;81.28;94661.03;5107332;28;20617;-83
2022/06/07 09:08:13;;;;;;;11.25;5.15;;;;;;;22.73;82.10;94653.69;5103625;28;20257;-82
2022/06/07 09:13:34;;;;;;;13.85;5.72;;;;;;;22.91;84.05;94644.88;5106112;28;20218;-82
2022/06/07 09:16:08;;;;;;;6.65;5.30;;;;;;;23.05;83.07;94652.81;5106867;28;20199;-83
2022/06/07 09:18:47;;;;;;;8.55;5.70;;;;;;;23.16;82.71;94648.88;5110426;28;20204;-83
2022/06/07 09:21:30;;;;;;;9.20;5.60;;;;;;;23.34;82.26;94655.94;5111074;28;20200;-83
2022/06/07 09:24:02;;;;;;;10.52;5.18;;;;;;;23.48;81.67;94654.06;5112569;28;20268;-84
2022/06/07 09:26:43;;;;;;;7.25;5.30;;;;;;;23.58;80.07;94643.22;5113091;28;20658;-83
2022/06/07 09:29:27;;;;;;;9.38;5.60;;;;;;;23.76;77.02;94646.00;5106265;28;20207;-82
2022/06/07 09:32:02;;;;;;;7.90;5.53;;;;;;;23.79;77.50;94642.75;5104866;28;20223;-83
2022/06/07 09:34:52;;;;;;;8.00;5.32;;;;;;;23.85;75.65;94638.91;5111484;28;20294;-84
2022/06/07 09:37:31;;;;;;;8.40;5.25;;;;;;;23.92;74.54;94634.78;5102682;28;20215;-83
2022/06/07 09:40:29;;;;;;;9.05;5.20;;;;;;;24.00;75.57;94636.69;5105905;28;20280;-82
2022/06/07 09:43:11;;;;;;;8.98;5.53;;;;;;;24.19;77.10;94636.53;5107278;28;20282;-82
2022/06/07 09:45:56;;;;;;;7.30;5.05;;;;;;;24.35;76.84;94635.06;5107446;28;20302;-84
2022/06/07 09:48:34;;;;;;;8.40;5.55;;;;;;;24.46;70.00;94625.75;5104398;28;20593;-82
2022/06/07 09:51:17;;;;;;;9.00;4.95;;;;;;;24.54;69.59;94618.91;5113246;28;20291;-82
2022/06/07 09:54:08;;;;;;;9.48;5.15;;;;;;;24.58;69.14;94625.19;5105742;28;20203;-84
2022/06/07 09:56:46;;;;;;;8.45;5.25;;;;;;;24.67;73.23;94618.81;5109947;28;20200;-84
2022/06/07 09:59:57;;;;;;;8.98;5.00;;;;;;;24.81;72.09;94608.09;5112763;28;20658;-83
2022/06/07 10:02:58;;;;;;;5.70;5.10;;;;;;;24.98;71.21;94607.38;5105663;28;20204;-83
2022/06/07 10:05:34;;;;;;;6.68;5.45;;;;;;;25.21;71.94;94609.63;5107592;28;20265;-82
2022/06/07 10:08:22;;;;;;;7.28;6.15;;;;;;;25.34;70.53;94611.34;5105810;28;20285;-80
2022/06/07 10:11:03;;;;;;;7.63;5.45;;;;;;;25.34;70.14;94602.56;5112435;28;20204;-81
2022/06/07 10:13:55;;;;;;;7.82;4.82;;;;;;;25.40;68.76;94594.13;5112308;28;20300;-81
2022/06/07 10:16:38;;;;;;;6.10;5.15;;;;;;;25.49;69.79;94596.03;5109077;28;20234;-81
2022/06/07 10:19:27;;;;;;;7.85;4.80;;;;;;;25.70;70.77;94595.13;5103706;28;20663;-82
2022/06/07 10:22:38;;;;;;;9.45;5.15;;;;;;;25.97;68.76;94590.56;5095661;28;20223;-83
2022/06/07 10:25:18;;;;;;;5.97;4.75;;;;;;;26.22;68.23;94595.88;5105805;28;20588;-83
2022/06/07 10:28:00;;;;;;;6.18;5.03;;;;;;;26.24;63.38;94591.00;5105903;28;20272;-83
2022/06/07 10:30:41;;;;;;;8.80;4.85;;;;;;;26.18;65.89;94581.59;5111659;28;20724;-83
2022/06/07 10:33:43;;;;;;;6.82;4.57;;;;;;;26.26;65.06;94590.69;5108651;28;20291;-85
2022/06/07 10:36:37;;;;;;;6.22;4.78;;;;;;;26.07;66.20;94585.69;5111822;28;20199;-84
2022/06/07 10:39:31;;;;;;;11.07;6.78;;;;;;;26.26;67.37;94578.13;5106304;28;20200;-84
2022/06/07 10:42:18;;;;;;;7.45;5.18;;;;;;;26.52;64.98;94561.28;5111493;28;20608;-86
2022/06/07 10:44:58;;;;;;;5.85;4.70;;;;;;;26.74;62.34;94574.38;5111781;28;20191;-84
2022/06/07 10:47:38;;;;;;;6.43;4.80;;;;;;;26.88;61.88;94564.28;5110793;28;20261;-82
2022/06/07 10:50:20;;;;;;;5.78;5.18;;;;;;;26.81;62.03;94564.78;5110954;28;20200;-81
2022/06/07 10:53:02;;;;;;;11.38;5.50;;;;;;;26.63;65.03;94565.16;5113506;28;20223;-86
2022/06/07 10:55:41;;;;;;;8.80;5.00;;;;;;;26.37;64.81;94559.94;5105611;28;20199;-82
2022/06/07 10:58:31;;;;;;;6.28;5.10;;;;;;;26.39;63.69;94553.16;5110961;28;20208;-82
2022/06/07 11:01:06;;;;;;;9.25;5.03;;;;;;;26.10;65.26;94557.63;5110963;28;20300;-82
2022/06/07 11:03:48;;;;;;;7.32;5.00;;;;;;;25.94;67.42;94557.34;5111365;28;20545;-82
2022/06/07 11:09:28;;;;;;;9.50;5.03;;;;;;;25.77;67.84;94552.06;5104691;28;20240;-82
2022/06/07 11:12:05;;;;;;;7.55;5.13;;;;;;;25.72;68.81;94550.31;5105966;28;20216;-82
2022/06/07 11:15:09;;;;;;;7.03;4.90;;;;;;;25.70;68.36;94555.19;5091506;28;20560;-81
2022/06/07 11:17:49;;;;;;;6.20;4.72;;;;;;;25.73;67.51;94556.44;5110495;28;20210;-83
2022/06/07 11:20:24;;;;;;;5.75;4.82;;;;;;;25.74;67.26;94552.69;5110653;28;20198;-83
2022/06/07 11:23:08;;;;;;;7.10;4.70;;;;;;;26.06;66.25;94538.81;5110142;28;20289;-80
2022/06/07 11:25:45;;;;;;;7.13;4.95;;;;;;;26.44;64.45;94546.88;5111102;28;20283;-83
2022/06/07 11:28:27;;;;;;;4.50;3.60;;;;;;;26.79;69.25;94545.66;5105509;28;20245;-83
2022/06/07 11:31:30;;;;;;;6.72;3.70;;;;;;;27.47;69.80;94544.47;5106505;28;20217;-83
2022/06/07 11:34:24;;;;;;;7.18;4.10;;;;;;;27.98;62.28;94545.88;5111321;28;20792;-81
2022/06/07 11:37:04;;;;;;;4.38;3.97;;;;;;;28.29;64.06;94549.97;5110988;28;20200;-84
2022/06/07 11:39:57;;;;;;;11.63;4.40;;;;;;;28.30;63.60;94541.63;5109902;28;20207;-82
2022/06/07 11:42:38;;;;;;;9.02;4.82;;;;;;;28.25;60.20;94541.84;5111532;28;20256;-83
2022/06/07 11:45:30;;;;;;;6.80;4.57;;;;;;;28.56;60.08;94531.41;5107763;28;20200;-83
2022/06/07 11:48:24;;;;;;;4.80;4.30;;;;;;;28.96;59.52;94534.22;5105385;28;20222;-83
2022/06/07 11:51:03;;;;;;;4.88;4.35;;;;;;;29.26;57.07;94524.06;5110069;28;20233;-84
2022/06/07 11:53:39;;;;;;;6.57;4.40;;;;;;;29.10;52.67;94518.56;5112756;28;20215;-83
2022/06/07 11:56:31;;;;;;;5.03;4.50;;;;;;;29.01;56.23;94511.78;5111322;28;20206;-83
2022/06/07 11:59:07;;;;;;;11.25;4.53;;;;;;;29.06;55.10;94509.66;5112227;28;20199;-82
2022/06/07 12:01:45;;;;;;;6.75;4.53;;;;;;;29.34;54.45;94509.75;5111877;28;20291;-84
2022/06/07 12:04:58;;;;;;;4.78;4.28;;;;;;;29.39;55.18;94504.13;5109798;28;20259;-83
2022/06/07 12:07:42;;;;;;;9.38;4.50;;;;;;;29.71;54.34;94510.38;5110562;28;20211;-89
2022/06/07 12:10:33;;;;;;;4.65;4.20;;;;;;;29.77;53.45;94504.44;5107983;28;20262;-88
2022/06/07 12:13:49;;;;;;;6.30;4.35;;;;;;;29.68;51.56;94503.03;5122073;28;20216;-88
2022/06/07 12:16:28;;;;;;;9.27;4.53;;;;;;;29.67;51.45;94498.78;5116601;28;20659;-89
2022/06/07 12:19:00;;;;;;;5.63;4.10;;;;;;;29.68;51.02;94490.41;5118437;28;20261;-90
2022/06/07 12:21:43;;;;;;;6.47;3.92;;;;;;;29.92;49.29;94505.63;5100274;28;20212;-92
2022/06/07 12:24:21;;;;;;;10.55;6.35;;;;;;;30.03;48.21;94489.81;5098892;28;20687;-87